Terminal Aerodrome Forecast
Issued by NWS

Home | Current Version | Previous Version | Text Only | Print | Product List | Glossary On
Versions: 1 2 3 4 5 6 7 8 9 10 11 12 13 14 15 16 17 18 19 20 21 22 23 24 25 26 27 28 29 30 31 32
000
FTUS43 KLOT 302320
TAFORD
TAF
KORD 302320Z 3100/0106 03012G18KT 5SM -SHRA BR OVC004
     FM310300 03012G18KT 3SM -RADZ BR OVC004
     FM311300 02014G22KT 6SM BR VCSH OVC006
     FM311800 01015G25KT P6SM OVC010
     FM010000 36012G18KT P6SM SCT015 BKN035=

USA.gov is the U.S. government's official web portal to all federal, state and local government web resources and services.